Time;durP1;ratioP1;P1;durP2;ratioP2;P2;SDS_P1;SDS_P2;PMS_P1;PMS_P2;Temp;Humidity;BMP_temperature;BMP_pressure;BME280_temperature;BME280_humidity;BME280_pressure;Samples;Min_cycle;Max_cycle;Signal;HPM_P1;HPM_P2
2021/08/29 00:02:05;;;;;;;4.80;3.70;;;12.80;84.20;;;11.33;88.87;96067.16;4961862;28;20125;-70
2021/08/29 00:04:31;;;;;;;4.40;3.30;;;12.70;84.40;;;11.29;89.37;96065.06;4973933;28;20034;-72
2021/08/29 00:06:57;;;;;;;4.60;4.10;;;12.70;84.60;;;11.26;89.40;96063.63;4957646;28;20057;-70
2021/08/29 00:09:22;;;;;;;4.80;3.90;;;12.60;84.70;;;11.25;89.44;96071.72;4973530;28;20058;-72
2021/08/29 00:11:48;;;;;;;6.70;4.25;;;12.70;84.80;;;11.20;89.92;96060.97;4978602;28;20057;-70
2021/08/29 00:14:14;;;;;;;4.88;3.70;;;12.60;84.80;;;11.21;89.79;96059.97;4963433;28;20030;-71
2021/08/29 00:16:40;;;;;;;4.20;3.80;;;12.60;84.90;;;11.20;89.41;96056.53;4991611;28;20125;-70
2021/08/29 00:19:06;;;;;;;4.63;3.88;;;12.70;84.80;;;11.20;89.44;96071.50;4979857;28;20125;-71
2021/08/29 00:21:31;;;;;;;4.38;3.85;;;12.60;84.90;;;11.15;89.12;96052.84;4991431;28;20053;-71
2021/08/29 00:23:57;;;;;;;4.68;4.18;;;12.50;84.90;;;11.13;89.25;96055.69;4974714;28;20068;-71
2021/08/29 00:26:24;;;;;;;4.72;3.85;;;12.60;85.10;;;11.12;89.37;96058.50;4990089;28;20151;-71
2021/08/29 00:28:50;;;;;;;5.07;4.15;;;12.50;85.10;;;11.09;90.01;96056.25;4978270;28;20031;-71
2021/08/29 00:31:16;;;;;;;4.65;4.05;;;12.60;85.10;;;11.09;89.53;96061.50;4939765;28;20059;-71
2021/08/29 00:33:42;;;;;;;4.53;3.70;;;12.50;85.30;;;11.08;90.52;96062.50;4953985;28;20414;-70
2021/08/29 00:36:08;;;;;;;5.22;4.20;;;12.60;85.30;;;11.08;90.25;96075.66;4987626;28;20398;-71
2021/08/29 00:38:33;;;;;;;5.20;3.85;;;12.50;85.10;;;11.07;90.00;96058.25;4963488;28;20082;-71
2021/08/29 00:40:59;;;;;;;8.82;4.38;;;12.50;85.10;;;11.04;90.13;96062.09;4954958;28;20050;-71
2021/08/29 00:43:25;;;;;;;4.22;3.83;;;12.50;85.30;;;11.03;90.07;96061.28;4974629;28;20489;-71
2021/08/29 00:45:54;;;;;;;4.30;3.83;;;12.50;85.40;;;11.03;89.79;96063.91;4990720;28;20038;-71
2021/08/29 00:48:20;;;;;;;4.80;3.95;;;12.50;85.40;;;11.05;90.52;96059.25;4983160;28;20042;-70
2021/08/29 00:50:46;;;;;;;4.82;4.10;;;12.60;85.20;;;11.07;89.92;96063.50;4947644;28;20434;-69
2021/08/29 00:53:16;;;;;;;5.70;3.88;;;12.60;85.00;;;11.06;90.17;96065.34;4968673;28;20027;-70
2021/08/29 00:55:41;;;;;;;6.07;3.97;;;12.60;85.10;;;11.04;90.51;96057.63;4961582;28;20026;-71
2021/08/29 00:58:07;;;;;;;3.85;3.45;;;12.60;84.90;;;11.05;89.73;96064.53;4957924;28;20383;-70
2021/08/29 01:00:33;;;;;;;4.47;3.88;;;12.50;84.90;;;11.02;89.55;96058.84;4970863;28;20042;-70
2021/08/29 01:02:59;;;;;;;4.05;3.42;;;12.40;85.10;;;11.01;89.98;96055.38;4964025;28;20038;-73
2021/08/29 01:05:44;;;;;;;3.53;3.22;;;12.40;85.00;;;11.03;90.17;96056.00;4958972;28;20473;-71
2021/08/29 01:08:13;;;;;;;3.75;3.45;;;12.40;85.00;;;10.99;89.97;96056.59;4953745;28;20391;-72
2021/08/29 01:10:54;;;;;;;3.95;3.50;;;12.50;85.10;;;10.98;90.21;96052.34;4948463;28;20039;-72
2021/08/29 01:13:32;;;;;;;3.83;3.50;;;12.50;85.20;;;10.97;91.10;96054.16;4974727;28;20493;-71
2021/08/29 01:16:07;;;;;;;7.15;3.60;;;12.50;85.30;;;10.96;90.81;96057.78;4989570;28;20117;-71
2021/08/29 01:18:38;;;;;;;6.05;3.55;;;12.40;85.20;;;10.93;91.10;96058.19;4973118;28;20035;-71
2021/08/29 01:21:13;;;;;;;8.02;4.30;;;12.30;85.40;;;10.93;90.77;96057.38;4987682;28;20513;-71
2021/08/29 01:23:44;;;;;;;6.40;3.95;;;12.40;85.40;;;10.89;90.57;96053.50;4951219;28;20129;-71
2021/08/29 01:26:21;;;;;;;5.40;3.90;;;12.30;85.70;;;10.89;91.21;96054.31;4956714;28;20031;-71
2021/08/29 01:28:56;;;;;;;4.78;4.03;;;12.30;85.70;;;10.85;90.20;96053.03;4966747;28;20093;-71
2021/08/29 01:31:25;;;;;;;4.78;4.30;;;12.20;85.50;;;10.84;90.08;96053.22;4960692;28;20071;-73
2021/08/29 01:33:51;;;;;;;5.80;4.03;;;12.30;85.50;;;10.85;90.21;96058.31;4956379;28;20058;-71
2021/08/29 01:36:16;;;;;;;5.57;4.30;;;12.30;85.50;;;10.88;90.42;96062.41;4951875;28;20041;-71
2021/08/29 01:38:43;;;;;;;9.82;3.95;;;12.40;85.50;;;10.87;90.36;96051.06;4967829;28;20027;-71
2021/08/29 01:41:10;;;;;;;4.95;4.20;;;12.40;85.20;;;10.89;91.05;96051.69;4955207;28;20038;-72
2021/08/29 01:43:37;;;;;;;6.85;4.20;;;12.40;85.30;;;10.88;91.13;96052.69;4956485;28;20145;-71
2021/08/29 01:46:03;;;;;;;4.82;4.30;;;12.40;85.10;;;10.86;90.38;96052.03;4973990;28;20046;-71
2021/08/29 01:48:28;;;;;;;4.78;4.32;;;12.30;85.30;;;10.86;90.68;96054.66;4950647;28;20129;-70
2021/08/29 01:50:54;;;;;;;4.95;4.47;;;12.30;85.30;;;10.84;90.48;96046.16;4981021;28;20087;-71
2021/08/29 01:53:20;;;;;;;5.28;4.10;;;12.30;85.30;;;10.80;90.26;96039.66;4959829;28;20077;-70
2021/08/29 01:55:49;;;;;;;6.93;4.05;;;12.30;85.60;;;10.83;91.03;96041.09;4983484;28;20110;-72
2021/08/29 01:58:15;;;;;;;5.05;4.55;;;12.20;85.70;;;10.82;90.44;96042.91;4968860;28;20026;-71
2021/08/29 02:00:51;;;;;;;5.28;4.70;;;12.20;85.50;;;10.83;90.71;96044.53;4955985;28;20023;-70
2021/08/29 02:03:17;;;;;;;5.25;4.60;;;12.30;85.30;;;10.79;90.31;96032.75;4955727;28;20055;-73
2021/08/29 02:05:43;;;;;;;5.38;4.53;;;12.20;85.40;;;10.77;90.69;96039.22;4951365;28;20039;-70
2021/08/29 02:08:09;;;;;;;5.28;4.50;;;12.20;85.20;;;10.75;90.77;96036.78;4955572;28;20406;-70
2021/08/29 02:10:34;;;;;;;4.90;4.50;;;12.20;85.20;;;10.73;90.61;96033.53;4959619;28;20043;-70
2021/08/29 02:13:04;;;;;;;4.85;4.38;;;12.20;85.30;;;10.73;91.14;96030.91;4952413;28;20428;-70
2021/08/29 02:15:33;;;;;;;5.60;5.00;;;12.20;85.10;;;10.66;90.57;96022.97;4949526;28;20038;-71
2021/08/29 02:17:59;;;;;;;5.85;4.82;;;12.20;85.40;;;10.67;91.09;96032.50;4956104;28;20149;-70
2021/08/29 02:20:25;;;;;;;5.70;4.90;;;12.10;85.60;;;10.66;90.85;96027.44;4973789;28;20042;-70
2021/08/29 02:22:52;;;;;;;7.00;4.78;;;12.10;85.30;;;10.62;91.16;96023.53;4968895;28;20429;-70
2021/08/29 02:25:18;;;;;;;5.32;4.82;;;12.10;85.50;;;10.62;90.71;96034.03;4955427;28;20144;-70
2021/08/29 02:27:43;;;;;;;5.68;5.10;;;12.10;85.80;;;10.60;90.78;96028.97;4970755;28;20122;-70
2021/08/29 02:30:10;;;;;;;6.28;5.15;;;12.10;85.50;;;10.61;91.33;96035.88;4957155;28;20109;-73
2021/08/29 02:32:40;;;;;;;5.32;4.80;;;12.10;85.80;;;10.61;91.08;96040.31;4971758;28;20625;-71
2021/08/29 02:35:07;;;;;;;5.27;4.77;;;12.10;85.80;;;10.61;91.41;96035.06;4950694;28;20058;-71
2021/08/29 02:37:32;;;;;;;5.47;4.97;;;12.20;85.80;;;10.60;92.02;96038.69;4960525;28;20057;-70
2021/08/29 02:39:58;;;;;;;5.47;4.78;;;12.20;85.70;;;10.61;90.91;96035.06;4955244;28;20042;-70
2021/08/29 02:42:26;;;;;;;5.28;4.65;;;12.20;85.70;;;10.63;91.35;96038.31;4955847;28;20150;-70
2021/08/29 02:44:52;;;;;;;5.43;4.93;;;12.20;85.40;;;10.64;91.05;96035.50;4961615;28;20038;-71
2021/08/29 02:47:18;;;;;;;4.90;4.10;;;12.20;85.70;;;10.65;91.44;96031.06;4943821;28;20077;-71
2021/08/29 02:49:44;;;;;;;6.43;4.53;;;12.20;85.60;;;10.66;91.45;96028.25;4986346;28;20561;-70
2021/08/29 02:52:09;;;;;;;4.95;4.45;;;12.20;85.60;;;10.67;91.52;96029.06;4975926;28;20031;-70
2021/08/29 02:54:35;;;;;;;4.47;4.07;;;12.30;85.40;;;10.70;91.50;96033.94;4971354;28;20106;-70
2021/08/29 02:57:01;;;;;;;5.72;4.50;;;12.30;85.80;;;10.72;91.68;96024.03;4943031;28;20122;-70
2021/08/29 02:59:27;;;;;;;4.47;4.05;;;12.30;85.50;;;10.75;91.80;96026.25;4937487;28;20540;-70
2021/08/29 03:01:53;;;;;;;4.57;4.00;;;12.30;85.40;;;10.76;91.50;96024.44;4971016;28;20034;-70
2021/08/29 03:04:19;;;;;;;6.80;4.40;;;12.40;85.40;;;10.76;90.94;96017.38;4952567;28;20122;-70
2021/08/29 03:06:45;;;;;;;5.90;4.20;;;12.30;85.30;;;10.77;91.71;96021.63;4948553;28;20446;-71
2021/08/29 03:09:11;;;;;;;7.57;4.10;;;12.40;85.40;;;10.79;91.97;96021.44;4969192;28;20452;-70
2021/08/29 03:11:37;;;;;;;5.40;4.28;;;12.40;85.30;;;10.81;90.93;96022.84;4977219;28;20042;-72
2021/08/29 03:14:03;;;;;;;4.85;4.40;;;12.40;85.00;;;10.79;91.10;96014.34;4970970;28;20046;-70
2021/08/29 03:16:30;;;;;;;4.55;4.15;;;12.40;85.20;;;10.77;90.87;96013.72;4945436;28;20035;-70
2021/08/29 03:18:57;;;;;;;4.68;4.03;;;12.30;85.20;;;10.78;91.36;96009.28;4962538;28;20412;-69
2021/08/29 03:21:23;;;;;;;6.55;4.30;;;12.40;85.20;;;10.77;91.71;96008.47;4971498;28;20037;-70
2021/08/29 03:23:49;;;;;;;5.32;4.82;;;12.40;85.20;;;10.77;90.96;96011.09;4947399;28;20031;-70
2021/08/29 03:26:15;;;;;;;5.10;4.60;;;12.40;85.10;;;10.77;91.61;96011.09;4953011;28;20034;-70
2021/08/29 03:28:41;;;;;;;5.20;4.70;;;12.40;85.00;;;10.78;90.73;96010.09;4960008;28;20038;-71
2021/08/29 03:31:07;;;;;;;5.53;4.88;;;12.40;85.00;;;10.77;91.34;96011.09;5003622;28;20421;-70
2021/08/29 03:33:33;;;;;;;6.80;4.32;;;12.30;85.10;;;10.76;91.62;96008.66;4989817;28;20061;-70
2021/08/29 03:35:58;;;;;;;4.72;4.28;;;12.40;85.20;;;10.77;91.00;96008.47;4957476;28;20099;-70
2021/08/29 03:38:24;;;;;;;5.20;4.70;;;12.40;85.20;;;10.81;91.44;96014.16;4975542;28;20129;-72
2021/08/29 03:40:51;;;;;;;6.25;4.72;;;12.40;85.30;;;10.82;91.36;96010.50;4955883;28;20221;-71
2021/08/29 03:43:17;;;;;;;9.50;4.38;;;12.50;85.10;;;10.83;90.72;96006.88;4987531;28;20057;-70
2021/08/29 03:45:43;;;;;;;6.07;5.30;;;12.40;85.10;;;10.82;91.81;96000.81;4970967;28;20030;-72
2021/08/29 03:48:10;;;;;;;6.25;4.60;;;12.40;85.40;;;10.83;91.51;95996.34;4988299;28;20054;-70
2021/08/29 03:50:36;;;;;;;5.93;4.95;;;12.40;85.40;;;10.83;91.27;95997.16;4980404;28;20512;-71
2021/08/29 03:53:05;;;;;;;6.25;5.22;;;12.40;85.50;;;10.80;91.59;95997.56;4938074;28;20034;-71
2021/08/29 03:55:31;;;;;;;8.50;4.75;;;12.40;85.50;;;10.80;91.56;95997.56;4925414;28;20046;-70
2021/08/29 03:57:57;;;;;;;5.45;4.55;;;12.50;85.60;;;10.84;92.17;95998.78;4989187;28;20035;-69
2021/08/29 04:00:24;;;;;;;5.32;4.82;;;12.50;85.60;;;10.85;91.55;95997.78;4987732;28;20457;-71
2021/08/29 04:02:50;;;;;;;8.75;4.63;;;12.40;85.70;;;10.86;92.27;95988.06;4939215;28;20045;-70
2021/08/29 04:05:16;;;;;;;6.03;4.50;;;12.50;85.60;;;10.91;91.57;95994.41;4986240;28;20035;-70
2021/08/29 04:07:43;;;;;;;5.65;4.45;;;12.50;85.60;;;10.91;91.94;95997.03;4953338;28;20042;-70
2021/08/29 04:10:09;;;;;;;6.90;5.10;;;12.50;85.60;;;10.92;91.81;95990.75;4984878;28;20045;-70
2021/08/29 04:12:35;;;;;;;6.28;5.10;;;12.60;85.60;;;10.93;92.39;95995.03;4974459;28;20209;-71
2021/08/29 04:15:00;;;;;;;5.75;5.00;;;12.60;85.60;;;10.95;91.89;95990.38;4956419;28;20450;-70
2021/08/29 04:17:26;;;;;;;9.40;5.07;;;12.60;85.40;;;10.98;91.98;95991.81;4990783;28;20046;-71
2021/08/29 04:19:52;;;;;;;6.10;5.05;;;12.60;85.60;;;10.99;92.53;95991.59;4988464;28;20517;-70
2021/08/29 04:22:19;;;;;;;6.65;5.15;;;12.60;85.40;;;11.00;91.86;95987.97;4984872;28;20038;-70
2021/08/29 04:24:45;;;;;;;7.32;5.97;;;12.60;85.70;;;11.01;92.54;95994.03;4956539;28;20455;-70
2021/08/29 04:27:11;;;;;;;7.03;5.63;;;12.70;85.60;;;11.05;92.60;95993.44;4954453;28;20082;-70
2021/08/29 04:29:37;;;;;;;7.35;6.30;;;12.70;85.50;;;11.06;93.02;95991.63;4970812;28;20034;-70
2021/08/29 04:32:04;;;;;;;9.90;6.50;;;12.70;85.60;;;11.05;92.90;95995.28;4974444;28;20038;-70
2021/08/29 04:34:30;;;;;;;10.05;6.82;;;12.60;86.10;;;11.04;93.05;95983.94;4978489;28;20027;-71
2021/08/29 04:36:55;;;;;;;7.80;7.00;;;12.60;86.30;;;11.05;92.94;95985.56;4973332;28;20505;-71
2021/08/29 04:39:21;;;;;;;8.25;7.43;;;12.60;86.30;;;11.03;92.86;95984.94;4969803;28;20521;-70
2021/08/29 04:41:47;;;;;;;8.60;7.13;;;12.60;86.40;;;11.04;93.36;95985.75;4939082;28;20142;-72
2021/08/29 04:44:13;;;;;;;8.27;7.47;;;12.60;86.50;;;11.05;92.73;95995.28;4955199;28;20047;-71
2021/08/29 04:46:39;;;;;;;9.40;8.40;;;12.60;86.20;;;11.04;92.73;95991.81;4976079;28;20054;-70
2021/08/29 04:49:05;;;;;;;8.05;7.25;;;12.60;86.30;;;11.03;92.72;95992.84;4986174;28;20037;-71
2021/08/29 04:51:30;;;;;;;8.57;7.68;;;12.60;86.40;;;11.01;92.87;95981.69;4984282;28;20043;-71
2021/08/29 04:53:56;;;;;;;9.65;8.65;;;12.60;86.50;;;11.01;93.66;95991.41;5006490;28;20405;-71
2021/08/29 04:56:22;;;;;;;8.85;7.95;;;12.60;86.70;;;11.01;94.00;95989.59;4969841;28;20472;-71
2021/08/29 04:58:49;;;;;;;11.80;8.02;;;12.70;86.80;;;11.08;93.64;95994.06;4952172;28;20246;-70
2021/08/29 05:01:16;;;;;;;9.02;7.65;;;12.80;86.50;;;11.13;93.71;96002.22;4984499;28;20041;-71
2021/08/29 05:03:42;;;;;;;8.48;7.63;;;12.80;86.30;;;11.17;93.45;96000.81;4957909;28;20536;-70
2021/08/29 05:06:08;;;;;;;9.43;8.50;;;12.90;86.00;;;11.18;93.38;95989.28;4968933;28;20074;-71
2021/08/29 05:08:34;;;;;;;9.55;8.65;;;12.90;85.90;;;11.21;93.27;95988.88;4989358;28;20031;-71
2021/08/29 05:10:59;;;;;;;9.00;8.18;;;12.80;85.80;;;11.24;93.60;95993.75;4972873;28;20453;-73
2021/08/29 05:13:25;;;;;;;10.20;8.50;;;12.90;85.90;;;11.26;93.77;96002.28;4963035;28;20030;-71
2021/08/29 05:15:51;;;;;;;9.45;8.38;;;12.90;85.90;;;11.25;93.47;96001.47;4941420;28;20113;-71
2021/08/29 05:18:17;;;;;;;9.38;8.30;;;12.90;86.00;;;11.25;93.48;95995.38;4948844;28;20055;-71
2021/08/29 05:20:42;;;;;;;9.38;8.30;;;12.90;86.00;;;11.27;93.02;95996.00;4953986;28;20054;-71
2021/08/29 05:23:08;;;;;;;9.50;8.48;;;12.90;85.90;;;11.27;92.99;95999.44;4957787;28;20106;-71
2021/08/29 05:25:34;;;;;;;10.38;8.73;;;12.90;86.10;;;11.30;93.08;96003.50;4969117;28;20050;-73
2021/08/29 05:27:59;;;;;;;15.93;14.25;;;12.90;86.10;;;11.30;93.69;96000.88;4956884;28;20547;-70
2021/08/29 05:30:25;;;;;;;12.02;10.70;;;12.90;86.40;;;11.31;94.08;96005.94;4951468;28;20456;-73
2021/08/29 05:32:51;;;;;;;11.13;9.60;;;13.00;86.40;;;11.32;93.42;96004.16;4953531;28;20461;-69
2021/08/29 05:35:17;;;;;;;12.60;10.35;;;12.90;86.50;;;11.31;93.97;96000.66;4965274;28;20109;-71
2021/08/29 05:37:43;;;;;;;11.80;10.60;;;13.00;86.70;;;11.36;93.82;96000.09;4962435;28;20130;-71
2021/08/29 05:40:09;;;;;;;12.90;11.32;;;13.10;86.70;;;11.40;93.99;96003.16;4964083;28;20121;-71
2021/08/29 05:42:35;;;;;;;13.98;12.57;;;13.10;86.60;;;11.40;94.01;96005.78;4954324;28;20093;-72
2021/08/29 05:45:01;;;;;;;17.70;15.70;;;12.90;86.50;;;11.41;94.21;96002.97;4964609;28;20121;-71
2021/08/29 05:47:26;;;;;;;13.93;12.45;;;13.00;86.60;;;11.42;93.92;96001.94;4970847;28;20096;-71
2021/08/29 05:49:52;;;;;;;14.52;12.95;;;13.10;86.60;;;11.45;94.52;95998.91;4946084;28;20458;-71
2021/08/29 05:52:18;;;;;;;15.75;12.88;;;13.10;86.40;;;11.48;94.46;96002.97;4972240;28;20077;-71
2021/08/29 05:54:44;;;;;;;16.52;13.63;;;13.10;86.50;;;11.53;94.46;96004.00;4949324;28;20510;-71
2021/08/29 05:57:09;;;;;;;14.10;11.88;;;13.20;86.50;;;11.58;94.56;96006.88;4942188;28;20521;-71
2021/08/29 05:59:35;;;;;;;14.27;12.32;;;13.30;86.00;;;11.62;94.55;96002.03;4969168;28;20122;-72
2021/08/29 06:02:01;;;;;;;13.75;12.25;;;13.30;85.80;;;11.65;93.67;96001.63;4969495;28;20151;-70
2021/08/29 06:04:27;;;;;;;13.70;12.30;;;13.40;86.00;;;11.67;94.17;96004.88;4972212;28;20077;-72
2021/08/29 06:06:52;;;;;;;15.00;13.40;;;13.40;85.70;;;11.69;93.62;95994.13;4959993;28;20105;-70
2021/08/29 06:09:18;;;;;;;16.35;14.65;;;13.40;85.80;;;11.71;93.83;95995.56;4943131;28;20136;-71
2021/08/29 06:11:44;;;;;;;15.63;14.07;;;13.40;85.60;;;11.74;94.08;95994.34;4965975;28;20049;-71
2021/08/29 06:14:10;;;;;;;16.35;14.55;;;13.40;85.70;;;11.79;93.84;95991.97;4958593;28;20034;-70
2021/08/29 06:16:35;;;;;;;16.60;14.80;;;13.60;85.50;;;11.80;93.78;95988.34;4969599;28;20054;-67
2021/08/29 06:19:01;;;;;;;17.67;15.82;;;13.50;85.90;;;11.85;93.96;95988.53;4986167;28;20057;-66
2021/08/29 06:21:27;;;;;;;19.48;15.75;;;13.60;85.10;;;11.89;93.70;95981.84;4955585;28;20061;-70
2021/08/29 06:23:53;;;;;;;20.67;18.25;;;13.60;85.00;;;11.89;93.36;95982.66;4970539;28;20057;-68
2021/08/29 06:26:19;;;;;;;23.48;20.77;;;13.60;85.50;;;11.94;93.39;95985.50;4946701;28;20102;-69
2021/08/29 06:28:45;;;;;;;25.48;22.50;;;13.70;85.20;;;12.00;93.52;95980.47;4965749;28;20113;-72
2021/08/29 06:31:11;;;;;;;20.67;14.80;;;13.70;85.00;;;12.00;93.67;95977.84;4954839;28;20134;-72
2021/08/29 06:33:37;;;;;;;16.63;14.73;;;13.70;84.50;;;12.03;93.11;95980.88;4971550;28;20133;-72
2021/08/29 06:36:02;;;;;;;15.07;13.50;;;13.70;85.00;;;12.04;93.23;95979.88;4987601;28;20482;-71
2021/08/29 06:38:28;;;;;;;14.38;12.93;;;13.70;85.00;;;12.04;92.82;95974.59;4971652;28;20045;-71
2021/08/29 06:40:54;;;;;;;15.38;13.82;;;13.70;85.30;;;12.08;92.56;95986.34;4952851;28;20030;-71
2021/08/29 06:43:20;;;;;;;13.50;12.18;;;13.70;84.90;;;12.08;92.83;95982.91;4960825;28;20414;-72
2021/08/29 06:45:45;;;;;;;16.02;13.75;;;13.70;84.70;;;12.06;93.02;95977.03;4971205;28;20065;-72
2021/08/29 06:48:11;;;;;;;16.30;13.90;;;13.60;85.00;;;12.06;92.48;95988.38;4977208;28;20130;-73
2021/08/29 06:50:37;;;;;;;15.80;13.75;;;13.70;84.80;;;12.07;92.66;95984.72;4965447;28;20113;-72
2021/08/29 06:53:03;;;;;;;22.85;20.55;;;13.70;85.00;;;12.08;92.48;95980.28;4948233;28;20038;-73
2021/08/29 06:55:28;;;;;;;15.45;13.95;;;13.80;85.10;;;12.10;92.89;95983.50;4953532;28;20113;-72
2021/08/29 06:57:54;;;;;;;18.15;16.25;;;13.80;84.90;;;12.11;92.59;95987.78;4955283;28;20429;-71
2021/08/29 07:00:20;;;;;;;18.52;16.55;;;13.90;84.90;;;12.17;93.07;95982.50;4937875;28;20163;-71
2021/08/29 07:02:46;;;;;;;19.20;17.30;;;13.90;84.20;;;12.17;92.64;95987.78;4974495;28;20030;-71
2021/08/29 07:05:11;;;;;;;20.23;18.10;;;13.80;84.50;;;12.21;92.25;95986.34;4950113;28;20130;-71
2021/08/29 07:07:37;;;;;;;17.10;15.30;;;13.90;84.50;;;12.26;92.65;95989.22;4951453;28;20118;-72
2021/08/29 07:10:03;;;;;;;13.85;11.93;;;14.00;84.10;;;12.27;91.96;95990.84;4955664;28;20134;-72
2021/08/29 07:12:29;;;;;;;12.63;11.23;;;14.00;84.20;;;12.32;92.34;95994.69;4949646;28;20030;-72
2021/08/29 07:14:55;;;;;;;14.70;11.93;;;14.10;84.20;;;12.37;92.58;95982.50;4956396;28;20514;-70
2021/08/29 07:17:21;;;;;;;12.52;11.23;;;14.10;83.80;;;12.39;91.65;95984.94;4963750;28;20121;-71
2021/08/29 07:19:46;;;;;;;12.07;10.77;;;14.10;83.70;;;12.44;92.50;95990.41;4955008;28;20041;-72
2021/08/29 07:22:12;;;;;;;13.23;11.75;;;14.20;84.00;;;12.47;92.15;95979.50;4990730;28;20130;-70
2021/08/29 07:24:38;;;;;;;11.95;10.75;;;14.30;83.90;;;12.52;91.89;95987.59;4973317;28;20630;-73
2021/08/29 07:27:05;;;;;;;11.40;10.20;;;14.30;84.10;;;12.57;92.26;95985.16;4944304;28;20061;-71
2021/08/29 07:29:30;;;;;;;11.32;10.20;;;14.40;83.50;;;12.64;93.18;95985.16;4959106;28;20026;-71
2021/08/29 07:31:57;;;;;;;10.50;9.50;;;14.50;83.40;;;12.69;92.18;95988.81;4994316;28;20033;-71
2021/08/29 07:34:23;;;;;;;9.68;8.68;;;14.60;83.00;;;12.74;92.33;95985.56;4958849;28;20029;-71
2021/08/29 07:36:49;;;;;;;8.40;7.65;;;14.70;82.70;;;12.79;91.64;95983.91;4963576;28;20136;-69
2021/08/29 07:39:14;;;;;;;8.75;7.85;;;14.60;82.50;;;12.79;91.40;95989.19;4977845;28;20072;-72
2021/08/29 07:41:40;;;;;;;9.52;8.63;;;14.60;82.70;;;12.81;91.39;95987.16;4958044;28;20117;-70
2021/08/29 07:44:06;;;;;;;8.32;7.53;;;14.60;83.20;;;12.81;91.00;95992.44;4958283;28;20150;-71
2021/08/29 07:46:32;;;;;;;7.97;7.18;;;14.60;83.00;;;12.82;91.21;95991.41;4978231;28;20113;-70
2021/08/29 07:48:57;;;;;;;8.82;7.18;;;14.50;82.40;;;12.82;90.22;95983.50;4931551;28;20038;-70
2021/08/29 07:51:23;;;;;;;6.78;6.07;;;14.60;82.50;;;12.82;90.48;95994.06;4967579;28;20034;-72
2021/08/29 07:53:49;;;;;;;8.18;6.10;;;14.50;82.20;;;12.83;90.49;95994.88;4990412;28;20138;-70
2021/08/29 07:56:15;;;;;;;7.88;7.10;;;14.60;82.30;;;12.84;90.50;95994.66;4953140;28;20371;-71
2021/08/29 07:58:40;;;;;;;7.55;6.82;;;14.60;82.40;;;12.87;91.17;95998.72;4986856;28;20196;-71
2021/08/29 08:01:06;;;;;;;7.68;6.93;;;14.60;82.80;;;12.89;90.12;95986.13;4958574;28;20125;-75
2021/08/29 08:03:32;;;;;;;5.95;5.45;;;14.70;82.40;;;12.92;90.91;95995.47;4971991;28;20517;-69
2021/08/29 08:05:58;;;;;;;7.50;6.80;;;14.80;82.30;;;12.97;90.38;95995.69;4972684;28;20038;-69
2021/08/29 08:08:23;;;;;;;7.18;6.47;;;14.90;82.00;;;12.98;89.80;96002.56;4974882;28;20045;-69
2021/08/29 08:10:49;;;;;;;7.63;6.68;;;14.80;81.80;;;12.96;89.69;95994.88;4973475;28;20076;-68
2021/08/29 08:13:15;;;;;;;7.00;6.30;;;14.80;81.90;;;12.99;90.35;95994.44;4971857;28;20117;-70
2021/08/29 08:15:41;;;;;;;11.50;10.40;;;14.80;81.90;;;13.01;90.33;95992.41;4974176;28;20066;-71
2021/08/29 08:18:06;;;;;;;10.88;9.77;;;14.80;82.20;;;13.04;90.59;95992.00;4967394;28;20032;-71
2021/08/29 08:20:32;;;;;;;9.98;7.78;;;14.90;82.20;;;13.08;90.32;95998.47;4990535;28;20034;-71
2021/08/29 08:22:58;;;;;;;8.63;7.72;;;14.90;82.00;;;13.10;90.54;95995.63;4963579;28;20039;-70
2021/08/29 08:25:24;;;;;;;9.23;7.85;;;15.00;81.80;;;13.10;89.67;95985.88;4947932;28;20136;-72
2021/08/29 08:27:50;;;;;;;8.57;7.78;;;15.10;81.70;;;13.16;90.72;95984.25;4953932;28;20118;-69
2021/08/29 08:30:15;;;;;;;10.07;8.65;;;15.10;82.00;;;13.22;90.05;95990.56;4958343;28;20127;-71
2021/08/29 08:32:41;;;;;;;7.20;6.50;;;15.10;81.50;;;13.28;90.50;95995.00;4954945;28;20122;-70
2021/08/29 08:35:07;;;;;;;7.53;6.80;;;15.30;81.80;;;13.31;90.26;95992.75;4979398;28;20058;-70
2021/08/29 08:37:33;;;;;;;7.47;6.78;;;15.30;81.50;;;13.42;89.95;95992.13;4969155;28;20130;-71
2021/08/29 08:39:59;;;;;;;7.38;6.53;;;15.50;81.50;;;13.54;90.85;95986.97;5004381;28;20042;-70
2021/08/29 08:42:26;;;;;;;6.97;6.28;;;15.70;80.90;;;13.64;89.97;95986.53;4944466;28;20073;-72
2021/08/29 08:44:51;;;;;;;6.63;6.03;;;15.80;80.50;;;13.73;90.12;95993.19;4942497;28;20037;-70
2021/08/29 08:47:18;;;;;;;7.47;6.20;;;15.80;80.00;;;13.82;89.25;95988.50;4953804;28;20075;-68
2021/08/29 08:49:44;;;;;;;6.70;6.10;;;15.80;80.00;;;13.87;89.51;95992.13;4954763;28;20159;-68
2021/08/29 08:52:19;;;;;;;6.75;5.90;;;15.80;80.60;;;13.96;88.84;95985.53;4965088;28;20055;-68
2021/08/29 08:54:46;;;;;;;6.68;4.88;;;16.00;79.80;;;14.01;88.77;95991.00;4949474;28;20038;-71
2021/08/29 08:57:17;;;;;;;5.55;4.90;;;16.00;79.50;;;14.06;88.21;95985.09;4979981;28;20061;-69
2021/08/29 08:59:47;;;;;;;;;;;16.10;79.50;;;14.06;88.21;95979.81;4986482;28;20598;-69
2021/08/29 09:02:13;;;;;;;6.93;6.20;;;16.00;80.10;;;14.04;88.43;95982.66;4990538;28;20284;-68
2021/08/29 09:04:40;;;;;;;6.75;6.15;;;15.90;80.20;;;14.08;88.55;95977.75;4971335;28;20042;-69
2021/08/29 09:07:06;;;;;;;7.20;6.50;;;15.90;80.70;;;14.10;88.77;95979.16;4972336;28;20037;-69
2021/08/29 09:09:33;;;;;;;6.97;6.15;;;16.00;80.70;;;14.13;88.70;95979.75;4974040;28;20030;-69
2021/08/29 09:11:59;;;;;;;6.75;6.10;;;16.00;80.60;;;14.13;88.72;95985.03;4937693;28;20054;-71
2021/08/29 09:14:48;;;;;;;6.05;5.53;;;16.00;79.80;;;14.13;88.09;95975.28;4968061;28;20066;-68
2021/08/29 09:17:30;;;;;;;6.78;5.78;;;16.00;79.60;;;14.17;88.05;95980.94;4970773;28;20035;-69
2021/08/29 09:20:37;;;;;;;7.68;5.90;;;16.10;79.70;;;14.17;87.10;95979.09;5005611;28;20105;-69
2021/08/29 09:23:08;;;;;;;6.35;5.65;;;16.10;79.40;;;14.19;88.23;95984.19;4982326;28;20494;-71
2021/08/29 09:25:40;;;;;;;;;;;16.10;79.70;;;14.17;87.97;95986.25;4973292;28;20038;-69
2021/08/29 09:28:18;;;;;;;11.50;9.48;;;16.00;79.80;;;14.10;87.07;95973.88;4974275;28;20289;-71
2021/08/29 09:30:46;;;;;;;34.30;27.50;;;15.80;79.40;;;14.09;86.54;95985.47;4989746;28;20030;-70
2021/08/29 09:33:12;;;;;;;12.73;10.40;;;15.90;79.60;;;14.09;88.41;95980.19;4971885;28;20034;-70
2021/08/29 09:35:38;;;;;;;5.80;5.20;;;15.90;79.50;;;14.09;87.33;95985.47;4973526;28;20030;-68
2021/08/29 09:38:06;;;;;;;6.40;5.70;;;15.80;78.80;;;14.08;86.03;95986.50;4958633;28;20148;-67
2021/08/29 09:40:36;;;;;;;5.60;5.10;;;15.80;79.20;;;14.01;86.72;95974.31;4960883;28;20034;-68
2021/08/29 09:43:03;;;;;;;7.50;6.80;;;15.70;79.00;;;14.00;86.78;95986.75;4960163;28;20046;-67
2021/08/29 09:45:37;;;;;;;7.88;7.18;;;15.60;80.20;;;13.97;87.15;95979.22;4988677;28;20080;-68
2021/08/29 09:48:05;;;;;;;7.18;6.35;;;15.60;80.60;;;13.94;86.91;95982.31;4968265;28;20050;-69
2021/08/29 09:50:32;;;;;;;7.25;6.43;;;15.60;80.60;;;13.92;87.65;95987.00;4972515;28;20034;-69
2021/08/29 09:53:08;;;;;;;8.05;7.25;;;15.60;80.80;;;13.91;88.95;95980.09;4956798;28;20491;-69
2021/08/29 09:55:42;;;;;;;7.32;6.60;;;15.50;81.30;;;13.89;88.01;95974.22;4947766;28;20113;-70
2021/08/29 09:58:31;;;;;;;6.40;5.80;;;15.60;81.30;;;13.92;88.43;95972.97;4960459;28;20031;-69
2021/08/29 10:01:16;;;;;;;6.50;5.80;;;15.70;80.40;;;13.95;88.97;95976.00;4966330;28;20038;-70
2021/08/29 10:03:51;;;;;;;7.15;6.45;;;15.80;80.90;;;14.01;89.07;95969.03;4973421;28;20027;-69
2021/08/29 10:06:27;;;;;;;6.97;6.28;;;16.10;80.80;;;14.12;88.50;95972.84;4968001;28;20493;-70
2021/08/29 10:08:58;;;;;;;7.30;6.60;;;16.20;79.70;;;14.31;87.51;95979.84;4955022;28;20113;-70
2021/08/29 10:11:25;;;;;;;6.57;5.95;;;16.60;79.10;;;14.51;88.44;95975.22;4968008;28;20045;-70
2021/08/29 10:13:51;;;;;;;5.60;5.10;;;16.90;78.50;;;14.69;87.89;95974.44;4987297;28;20034;-69
2021/08/29 10:16:18;;;;;;;6.25;5.32;;;17.00;77.40;;;14.85;88.00;95975.75;4989409;28;20096;-70
2021/08/29 10:18:47;;;;;;;5.70;5.20;;;17.20;77.10;;;14.97;86.54;95974.00;4955267;28;20045;-70